sensor_id;sensor_type;location;lat;lon;timestamp;temperature;humidity
18781;DHT22;9519;51.890;8.970;2023-02-26T00:00:49;0.60;99.90
18781;DHT22;9519;51.890;8.970;2023-02-26T00:16:01;0.40;99.90
18781;DHT22;9519;51.890;8.970;2023-02-26T00:21:04;0.60;99.90
18781;DHT22;9519;51.890;8.970;2023-02-26T00:26:08;0.40;99.90
18781;DHT22;9519;51.890;8.970;2023-02-26T00:31:13;0.40;99.90
18781;DHT22;9519;51.890;8.970;2023-02-26T00:36:20;0.40;99.90
18781;DHT22;9519;51.890;8.970;2023-02-26T00:41:24;0.30;99.90
18781;DHT22;9519;51.890;8.970;2023-02-26T00:46:36;0.30;99.90
18781;DHT22;9519;51.890;8.970;2023-02-26T00:51:48;0.30;99.90
18781;DHT22;9519;51.890;8.970;2023-02-26T00:56:55;0.20;99.90
18781;DHT22;9519;51.890;8.970;2023-02-26T01:02:00;0.20;99.90
18781;DHT22;9519;51.890;8.970;2023-02-26T01:07:02;0.20;99.90
18781;DHT22;9519;51.890;8.970;2023-02-26T01:12:07;0.20;99.90
18781;DHT22;9519;51.890;8.970;2023-02-26T01:17:17;0.10;99.90
18781;DHT22;9519;51.890;8.970;2023-02-26T01:22:26;0.10;99.90
18781;DHT22;9519;51.890;8.970;2023-02-26T01:32:42;0.00;99.90
18781;DHT22;9519;51.890;8.970;2023-02-26T01:37:52;0.00;99.90
18781;DHT22;9519;51.890;8.970;2023-02-26T01:43:06;0.00;99.90
18781;DHT22;9519;51.890;8.970;2023-02-26T01:48:19;0.00;99.90
18781;DHT22;9519;51.890;8.970;2023-02-26T01:58:35;0.00;99.90
18781;DHT22;9519;51.890;8.970;2023-02-26T02:03:41;0.00;99.90
18781;DHT22;9519;51.890;8.970;2023-02-26T02:13:58;0.10;99.90
18781;DHT22;9519;51.890;8.970;2023-02-26T02:19:50;0.10;99.90
18781;DHT22;9519;51.890;8.970;2023-02-26T02:25:11;0.20;99.90
18781;DHT22;9519;51.890;8.970;2023-02-26T02:30:34;0.20;99.90
18781;DHT22;9519;51.890;8.970;2023-02-26T02:35:47;0.20;99.90
18781;DHT22;9519;51.890;8.970;2023-02-26T02:40:54;0.20;99.90
18781;DHT22;9519;51.890;8.970;2023-02-26T02:46:04;0.20;99.90
18781;DHT22;9519;51.890;8.970;2023-02-26T02:51:12;0.20;99.90
18781;DHT22;9519;51.890;8.970;2023-02-26T02:56:26;0.10;99.90
18781;DHT22;9519;51.890;8.970;2023-02-26T03:01:32;0.20;99.90
18781;DHT22;9519;51.890;8.970;2023-02-26T03:06:38;0.20;99.90
18781;DHT22;9519;51.890;8.970;2023-02-26T03:17:01;0.20;99.90
18781;DHT22;9519;51.890;8.970;2023-02-26T03:22:20;0.20;99.90
18781;DHT22;9519;51.890;8.970;2023-02-26T03:27:34;0.30;99.90
18781;DHT22;9519;51.890;8.970;2023-02-26T03:37:57;0.40;99.90
18781;DHT22;9519;51.890;8.970;2023-02-26T03:43:05;0.60;99.90
18781;DHT22;9519;51.890;8.970;2023-02-26T03:48:13;0.50;99.90
18781;DHT22;9519;51.890;8.970;2023-02-26T03:53:24;2.00;99.90
18781;DHT22;9519;51.890;8.970;2023-02-26T04:03:35;0.50;99.90
18781;DHT22;9519;51.890;8.970;2023-02-26T04:08:43;0.50;99.90
18781;DHT22;9519;51.890;8.970;2023-02-26T04:13:45;0.60;99.90
18781;DHT22;9519;51.890;8.970;2023-02-26T04:23:51;0.30;99.90
18781;DHT22;9519;51.890;8.970;2023-02-26T04:38:59;0.20;99.90
18781;DHT22;9519;51.890;8.970;2023-02-26T04:54:08;0.00;99.90
18781;DHT22;9519;51.890;8.970;2023-02-26T04:59:10;0.20;99.90
18781;DHT22;9519;51.890;8.970;2023-02-26T05:09:16;-0.10;99.90
18781;DHT22;9519;51.890;8.970;2023-02-26T05:14:21;-0.10;99.90
18781;DHT22;9519;51.890;8.970;2023-02-26T05:24:27;-0.10;99.90
18781;DHT22;9519;51.890;8.970;2023-02-26T05:39:35;-0.20;99.90
18781;DHT22;9519;51.890;8.970;2023-02-26T05:54:43;-0.20;99.90
18781;DHT22;9519;51.890;8.970;2023-02-26T06:09:51;-0.20;99.90
18781;DHT22;9519;51.890;8.970;2023-02-26T06:24:59;-0.10;99.90
18781;DHT22;9519;51.890;8.970;2023-02-26T06:35:04;0.00;99.90
18781;DHT22;9519;51.890;8.970;2023-02-26T06:40:10;-0.10;99.90
18781;DHT22;9519;51.890;8.970;2023-02-26T06:50:16;-0.10;99.90
18781;DHT22;9519;51.890;8.970;2023-02-26T06:55:19;-0.10;99.90
18781;DHT22;9519;51.890;8.970;2023-02-26T07:10:32;0.00;99.90
18781;DHT22;9519;51.890;8.970;2023-02-26T07:25:47;0.10;99.90
18781;DHT22;9519;51.890;8.970;2023-02-26T07:40:58;0.40;99.90
18781;DHT22;9519;51.890;8.970;2023-02-26T07:56:08;0.40;99.90
18781;DHT22;9519;51.890;8.970;2023-02-26T08:11:19;0.50;99.90
18781;DHT22;9519;51.890;8.970;2023-02-26T08:26:28;0.60;99.90
18781;DHT22;9519;51.890;8.970;2023-02-26T08:36:33;0.60;99.90
18781;DHT22;9519;51.890;8.970;2023-02-26T08:41:37;1.10;99.90
18781;DHT22;9519;51.890;8.970;2023-02-26T08:51:41;0.80;99.90
18781;DHT22;9519;51.890;8.970;2023-02-26T08:56:45;1.10;99.90
18781;DHT22;9519;51.890;8.970;2023-02-26T09:11:53;1.30;99.90
18781;DHT22;9519;51.890;8.970;2023-02-26T09:16:55;1.70;99.90
18781;DHT22;9519;51.890;8.970;2023-02-26T09:21:58;1.60;99.90
18781;DHT22;9519;51.890;8.970;2023-02-26T09:27:01;1.50;99.90
18781;DHT22;9519;51.890;8.970;2023-02-26T09:37:08;1.80;99.90
18781;DHT22;9519;51.890;8.970;2023-02-26T09:42:23;1.90;99.90
18781;DHT22;9519;51.890;8.970;2023-02-26T09:47:44;1.80;99.90
18781;DHT22;9519;51.890;8.970;2023-02-26T09:52:55;1.90;99.90
18781;DHT22;9519;51.890;8.970;2023-02-26T09:58:09;2.20;99.90
18781;DHT22;9519;51.890;8.970;2023-02-26T10:03:23;2.20;99.90
18781;DHT22;9519;51.890;8.970;2023-02-26T10:08:35;2.20;99.90
18781;DHT22;9519;51.890;8.970;2023-02-26T10:13:45;2.40;99.90
18781;DHT22;9519;51.890;8.970;2023-02-26T10:18:57;2.00;99.90
18781;DHT22;9519;51.890;8.970;2023-02-26T10:24:07;2.10;99.90
18781;DHT22;9519;51.890;8.970;2023-02-26T10:29:20;2.30;97.30
18781;DHT22;9519;51.890;8.970;2023-02-26T10:34:30;2.10;99.90
18781;DHT22;9519;51.890;8.970;2023-02-26T10:39:40;2.50;96.80
18781;DHT22;9519;51.890;8.970;2023-02-26T10:44:59;2.60;99.90
18781;DHT22;9519;51.890;8.970;2023-02-26T10:50:13;2.70;96.30
18781;DHT22;9519;51.890;8.970;2023-02-26T10:55:28;2.90;99.90
18781;DHT22;9519;51.890;8.970;2023-02-26T11:00:39;2.90;95.50
18781;DHT22;9519;51.890;8.970;2023-02-26T11:05:45;2.60;99.90
18781;DHT22;9519;51.890;8.970;2023-02-26T11:10:51;3.30;99.90
18781;DHT22;9519;51.890;8.970;2023-02-26T11:15:59;3.10;95.50
18781;DHT22;9519;51.890;8.970;2023-02-26T11:21:05;3.30;95.50
18781;DHT22;9519;51.890;8.970;2023-02-26T11:26:15;3.40;95.40
18781;DHT22;9519;51.890;8.970;2023-02-26T11:31:22;3.40;99.90
18781;DHT22;9519;51.890;8.970;2023-02-26T11:36:27;3.50;99.90
18781;DHT22;9519;51.890;8.970;2023-02-26T11:41:35;3.30;99.90
18781;DHT22;9519;51.890;8.970;2023-02-26T11:46:46;4.10;99.90
18781;DHT22;9519;51.890;8.970;2023-02-26T11:52:04;3.90;96.20
18781;DHT22;9519;51.890;8.970;2023-02-26T11:57:18;4.00;99.90
18781;DHT22;9519;51.890;8.970;2023-02-26T12:02:26;3.70;92.60
18781;DHT22;9519;51.890;8.970;2023-02-26T12:07:34;3.60;99.90
18781;DHT22;9519;51.890;8.970;2023-02-26T12:12:47;4.10;99.90
18781;DHT22;9519;51.890;8.970;2023-02-26T12:18:20;3.80;99.90
18781;DHT22;9519;51.890;8.970;2023-02-26T12:24:06;3.70;99.90
18781;DHT22;9519;51.890;8.970;2023-02-26T12:29:32;3.80;99.90
18781;DHT22;9519;51.890;8.970;2023-02-26T12:35:16;3.90;99.90
18781;DHT22;9519;51.890;8.970;2023-02-26T12:41:11;3.90;99.90
18781;DHT22;9519;51.890;8.970;2023-02-26T12:46:37;4.00;99.90
18781;DHT22;9519;51.890;8.970;2023-02-26T12:52:03;4.30;90.80
18781;DHT22;9519;51.890;8.970;2023-02-26T12:57:45;4.20;99.90
18781;DHT22;9519;51.890;8.970;2023-02-26T13:03:38;4.40;97.50
18781;DHT22;9519;51.890;8.970;2023-02-26T13:08:56;4.20;90.10
18781;DHT22;9519;51.890;8.970;2023-02-26T13:14:17;4.30;99.90
18781;DHT22;9519;51.890;8.970;2023-02-26T13:19:35;4.40;99.90
18781;DHT22;9519;51.890;8.970;2023-02-26T13:24:49;4.30;89.20
18781;DHT22;9519;51.890;8.970;2023-02-26T13:30:09;4.40;99.90
18781;DHT22;9519;51.890;8.970;2023-02-26T13:35:24;4.30;99.90
18781;DHT22;9519;51.890;8.970;2023-02-26T13:40:44;4.30;99.90
18781;DHT22;9519;51.890;8.970;2023-02-26T13:45:58;4.80;99.90
18781;DHT22;9519;51.890;8.970;2023-02-26T13:51:13;4.60;99.90
18781;DHT22;9519;51.890;8.970;2023-02-26T14:02:34;4.50;99.90
18781;DHT22;9519;51.890;8.970;2023-02-26T14:07:48;4.50;99.90
18781;DHT22;9519;51.890;8.970;2023-02-26T14:13:15;4.80;99.90
18781;DHT22;9519;51.890;8.970;2023-02-26T14:18:29;5.40;99.90
18781;DHT22;9519;51.890;8.970;2023-02-26T14:23:37;5.00;99.90
18781;DHT22;9519;51.890;8.970;2023-02-26T14:29:07;5.10;99.90
18781;DHT22;9519;51.890;8.970;2023-02-26T14:34:20;5.30;99.90
18781;DHT22;9519;51.890;8.970;2023-02-26T14:39:28;5.10;99.90
18781;DHT22;9519;51.890;8.970;2023-02-26T14:44:37;5.20;89.70
18781;DHT22;9519;51.890;8.970;2023-02-26T14:49:44;5.30;89.50
18781;DHT22;9519;51.890;8.970;2023-02-26T14:55:00;5.50;99.90
18781;DHT22;9519;51.890;8.970;2023-02-26T15:00:28;5.50;85.70
18781;DHT22;9519;51.890;8.970;2023-02-26T15:05:43;5.70;87.10
18781;DHT22;9519;51.890;8.970;2023-02-26T15:17:08;6.20;87.20
18781;DHT22;9519;51.890;8.970;2023-02-26T15:22:32;6.40;86.10
18781;DHT22;9519;51.890;8.970;2023-02-26T15:27:44;6.40;85.50
18781;DHT22;9519;51.890;8.970;2023-02-26T15:32:48;6.30;83.90
18781;DHT22;9519;51.890;8.970;2023-02-26T15:38:01;6.30;84.90
18781;DHT22;9519;51.890;8.970;2023-02-26T15:43:07;6.40;84.60
18781;DHT22;9519;51.890;8.970;2023-02-26T15:48:14;6.50;82.90
18781;DHT22;9519;51.890;8.970;2023-02-26T15:53:33;6.50;83.00
18781;DHT22;9519;51.890;8.970;2023-02-26T15:58:40;6.00;99.90
18781;DHT22;9519;51.890;8.970;2023-02-26T16:03:49;5.60;99.90
18781;DHT22;9519;51.890;8.970;2023-02-26T16:08:54;5.70;82.30
18781;DHT22;9519;51.890;8.970;2023-02-26T16:13:58;5.40;99.90
18781;DHT22;9519;51.890;8.970;2023-02-26T16:19:05;5.00;99.90
18781;DHT22;9519;51.890;8.970;2023-02-26T16:24:11;4.80;99.90
18781;DHT22;9519;51.890;8.970;2023-02-26T16:29:19;5.10;99.90
18781;DHT22;9519;51.890;8.970;2023-02-26T16:34:34;4.60;99.90
18781;DHT22;9519;51.890;8.970;2023-02-26T16:39:43;5.00;99.90
18781;DHT22;9519;51.890;8.970;2023-02-26T16:44:49;4.50;99.90
18781;DHT22;9519;51.890;8.970;2023-02-26T16:49:54;4.40;99.90
18781;DHT22;9519;51.890;8.970;2023-02-26T16:55:01;4.30;99.90
18781;DHT22;9519;51.890;8.970;2023-02-26T17:00:12;4.20;99.90
18781;DHT22;9519;51.890;8.970;2023-02-26T17:05:25;4.10;84.10
18781;DHT22;9519;51.890;8.970;2023-02-26T17:10:32;3.90;99.90
18781;DHT22;9519;51.890;8.970;2023-02-26T17:15:41;3.90;99.90
18781;DHT22;9519;51.890;8.970;2023-02-26T17:20:47;4.20;99.90
18781;DHT22;9519;51.890;8.970;2023-02-26T17:25:51;3.80;84.30
18781;DHT22;9519;51.890;8.970;2023-02-26T17:30:57;4.00;99.90
18781;DHT22;9519;51.890;8.970;2023-02-26T17:36:02;3.80;99.90
18781;DHT22;9519;51.890;8.970;2023-02-26T17:46:09;3.50;85.30
18781;DHT22;9519;51.890;8.970;2023-02-26T17:51:13;3.60;85.80
18781;DHT22;9519;51.890;8.970;2023-02-26T17:56:22;3.20;99.90
18781;DHT22;9519;51.890;8.970;2023-02-26T18:01:26;3.50;86.60
18781;DHT22;9519;51.890;8.970;2023-02-26T18:06:32;3.70;99.90
18781;DHT22;9519;51.890;8.970;2023-02-26T18:16:41;3.50;90.40
18781;DHT22;9519;51.890;8.970;2023-02-26T18:21:46;3.40;99.90
18781;DHT22;9519;51.890;8.970;2023-02-26T18:31:52;3.90;99.90
18781;DHT22;9519;51.890;8.970;2023-02-26T18:36:55;3.20;98.20
18781;DHT22;9519;51.890;8.970;2023-02-26T18:41:58;3.30;99.90
18781;DHT22;9519;51.890;8.970;2023-02-26T18:52:05;3.20;88.80
18781;DHT22;9519;51.890;8.970;2023-02-26T18:57:08;3.20;89.10
18781;DHT22;9519;51.890;8.970;2023-02-26T19:02:11;3.30;99.90
18781;DHT22;9519;51.890;8.970;2023-02-26T19:22:29;3.00;90.10
18781;DHT22;9519;51.890;8.970;2023-02-26T19:37:39;2.90;90.50
18781;DHT22;9519;51.890;8.970;2023-02-26T19:42:42;3.00;99.90
18781;DHT22;9519;51.890;8.970;2023-02-26T19:47:45;3.00;99.90
18781;DHT22;9519;51.890;8.970;2023-02-26T19:52:49;2.90;99.90
18781;DHT22;9519;51.890;8.970;2023-02-26T20:02:54;3.10;99.90
18781;DHT22;9519;51.890;8.970;2023-02-26T20:07:58;2.90;90.90
18781;DHT22;9519;51.890;8.970;2023-02-26T20:23:06;2.80;91.20
18781;DHT22;9519;51.890;8.970;2023-02-26T20:33:15;2.40;93.00
18781;DHT22;9519;51.890;8.970;2023-02-26T20:38:20;2.70;91.30
18781;DHT22;9519;51.890;8.970;2023-02-26T20:48:27;2.70;91.50
18781;DHT22;9519;51.890;8.970;2023-02-26T20:53:46;2.70;91.60
18781;DHT22;9519;51.890;8.970;2023-02-26T21:08:55;2.80;92.00
18781;DHT22;9519;51.890;8.970;2023-02-26T21:13:57;2.80;99.90
18781;DHT22;9519;51.890;8.970;2023-02-26T21:19:00;2.90;93.20
18781;DHT22;9519;51.890;8.970;2023-02-26T21:24:05;2.80;92.00
18781;DHT22;9519;51.890;8.970;2023-02-26T21:29:08;2.60;99.90
18781;DHT22;9519;51.890;8.970;2023-02-26T21:39:14;2.50;92.10
18781;DHT22;9519;51.890;8.970;2023-02-26T21:54:23;2.30;92.40
18781;DHT22;9519;51.890;8.970;2023-02-26T22:09:32;2.10;92.60
18781;DHT22;9519;51.890;8.970;2023-02-26T22:24:42;2.10;93.00
18781;DHT22;9519;51.890;8.970;2023-02-26T22:39:53;1.90;93.10
18781;DHT22;9519;51.890;8.970;2023-02-26T22:55:02;1.80;93.40
18781;DHT22;9519;51.890;8.970;2023-02-26T23:00:10;1.70;93.50
18781;DHT22;9519;51.890;8.970;2023-02-26T23:05:15;1.70;93.60
18781;DHT22;9519;51.890;8.970;2023-02-26T23:10:20;1.70;93.70
18781;DHT22;9519;51.890;8.970;2023-02-26T23:25:28;1.60;93.90
18781;DHT22;9519;51.890;8.970;2023-02-26T23:35:34;1.50;94.00
18781;DHT22;9519;51.890;8.970;2023-02-26T23:40:40;1.40;94.00
18781;DHT22;9519;51.890;8.970;2023-02-26T23:45:43;-0.50;93.50
18781;DHT22;9519;51.890;8.970;2023-02-26T23:55:51;1.20;94.10
